Highland, Indiana
Current Conditions -  °F | °C
As of 8:35 AM on Saturday 22 Nov 2014 (Local Time) from KIGQ Reporting Station
Overcast Overcast  
Wind Chill: 30°   Ceiling: 1600
Heat Index: 38°   Visibility: 7mi
Dew Point: 35°   Wind: 12mph
Humidity: 90%   Direction: 210°SSW
Pressure: 30.05"   Gusts: NA
Location:  41.55°N, 87.45°W
Report Text: KIGQ 221435Z AUTO 21010KT 7SM OVC016 03/02 A3005 RMK AO2 T00310016
Loading
Personal Weather Stations






























Interactive Weather Map New forecast layout! Learn more

10-Day Weather Forecast

Advertisements
Track Severe Weather on mobile